Time;durP1;ratioP1;P1;durP2;ratioP2;P2;SDS_P1;SDS_P2;PMS_P1;PMS_P2;Temp;Humidity;BMP_temperature;BMP_pressure;BME280_temperature;BME280_humidity;BME280_pressure;Samples;Min_cycle;Max_cycle;Signal;HPM_P1;HPM_P2
2021/12/28 00:00:56;;;;;;;94.00;65.70;;;;;;;;;;5013912;28;20032;-63
2021/12/28 00:03:22;;;;;;;94.97;65.63;;;;;;;;;;5016045;28;20030;-63
2021/12/28 00:05:48;;;;;;;100.10;66.33;;;;;;;;;;5010581;28;20030;-62
2021/12/28 00:08:16;;;;;;;102.13;65.93;;;;;;;;;;5013572;28;20033;-63
2021/12/28 00:10:42;;;;;;;99.00;67.67;;;;;;;;;;5011171;28;20026;-63
2021/12/28 00:13:08;;;;;;;92.50;64.13;;;;;;;;;;5000876;28;20437;-63
2021/12/28 00:15:48;;;;;;;101.70;66.13;;;;;;;;;;4995573;28;20026;-64
2021/12/28 00:18:14;;;;;;;94.90;63.50;;;;;;;;;;5013292;28;20032;-63
2021/12/28 00:20:42;;;;;;;101.87;67.33;;;;;;;;;;5012175;28;20171;-63
2021/12/28 00:23:10;;;;;;;94.93;67.23;;;;;;;;;;5004540;28;20388;-63
2021/12/28 00:25:36;;;;;;;95.33;63.00;;;;;;;;;;5011488;28;20034;-63
2021/12/28 00:28:02;;;;;;;101.53;67.83;;;;;;;;;;5003798;28;20443;-63
2021/12/28 00:30:29;;;;;;;97.00;63.23;;;;;;;;;;5011481;28;20531;-63
2021/12/28 00:32:56;;;;;;;97.40;66.60;;;;;;;;;;5007584;28;20025;-64
2021/12/28 00:35:26;;;;;;;97.67;66.23;;;;;;;;;;5011042;28;20038;-63
2021/12/28 00:37:53;;;;;;;106.63;69.53;;;;;;;;;;5008605;28;20516;-64
2021/12/28 00:40:19;;;;;;;94.03;62.83;;;;;;;;;;5010996;28;20018;-64
2021/12/28 00:42:45;;;;;;;96.30;65.60;;;;;;;;;;5012133;28;20026;-63
2021/12/28 00:45:12;;;;;;;101.10;67.20;;;;;;;;;;5006244;28;20069;-63
2021/12/28 00:47:38;;;;;;;101.70;68.07;;;;;;;;;;5008324;28;20111;-63
2021/12/28 00:50:05;;;;;;;102.40;67.50;;;;;;;;;;5003799;28;20022;-63
2021/12/28 00:52:31;;;;;;;97.87;64.27;;;;;;;;;;5009969;28;20041;-64
2021/12/28 00:54:57;;;;;;;94.83;62.50;;;;;;;;;;4995479;28;20383;-64
2021/12/28 00:57:23;;;;;;;97.47;62.70;;;;;;;;;;5013008;28;20029;-63
2021/12/28 00:59:49;;;;;;;97.80;64.10;;;;;;;;;;5012783;28;20022;-64
2021/12/28 01:02:15;;;;;;;97.93;64.10;;;;;;;;;;5020548;28;20017;-63
2021/12/28 01:04:41;;;;;;;95.43;63.77;;;;;;;;;;5012906;28;20089;-64
2021/12/28 01:07:07;;;;;;;93.27;63.70;;;;;;;;;;5013153;28;20468;-63
2021/12/28 01:09:34;;;;;;;95.13;62.47;;;;;;;;;;5018363;28;20033;-64
2021/12/28 01:12:00;;;;;;;97.80;63.90;;;;;;;;;;5018948;28;20061;-64
2021/12/28 01:14:27;;;;;;;95.03;64.03;;;;;;;;;;5018855;28;20431;-64
2021/12/28 01:16:53;;;;;;;108.50;68.70;;;;;;;;;;5017847;28;20034;-63
2021/12/28 01:19:19;;;;;;;99.77;66.17;;;;;;;;;;5016710;28;20030;-63
2021/12/28 01:21:45;;;;;;;104.23;65.60;;;;;;;;;;5018763;28;20061;-63
2021/12/28 01:24:11;;;;;;;102.03;63.93;;;;;;;;;;5015921;28;20034;-63
2021/12/28 01:26:37;;;;;;;103.37;64.93;;;;;;;;;;5019449;28;20022;-63
2021/12/28 01:29:03;;;;;;;108.00;66.30;;;;;;;;;;5018161;28;20523;-64
2021/12/28 01:31:30;;;;;;;98.27;63.60;;;;;;;;;;5019339;28;20018;-63
2021/12/28 01:33:56;;;;;;;104.00;65.00;;;;;;;;;;5018317;28;20128;-64
2021/12/28 01:36:22;;;;;;;104.13;65.73;;;;;;;;;;5018428;28;20033;-63
2021/12/28 01:38:48;;;;;;;101.03;61.03;;;;;;;;;;5018518;28;20054;-63
2021/12/28 01:41:14;;;;;;;97.37;60.80;;;;;;;;;;5019878;28;20032;-64
2021/12/28 01:43:42;;;;;;;97.77;60.93;;;;;;;;;;5023687;28;20444;-64
2021/12/28 01:46:09;;;;;;;101.73;62.60;;;;;;;;;;5016356;28;20177;-63
2021/12/28 01:48:37;;;;;;;93.43;59.20;;;;;;;;;;5018547;28;20022;-63
2021/12/28 01:51:13;;;;;;;92.63;60.13;;;;;;;;;;5018337;28;20406;-64
2021/12/28 01:53:40;;;;;;;96.20;58.87;;;;;;;;;;5012829;28;20037;-64
2021/12/28 01:56:08;;;;;;;96.03;59.87;;;;;;;;;;5017411;28;20018;-63
2021/12/28 01:58:34;;;;;;;94.70;59.90;;;;;;;;;;5009966;28;20476;-63
2021/12/28 02:01:01;;;;;;;91.33;57.40;;;;;;;;;;5010756;28;20602;-63
2021/12/28 02:03:27;;;;;;;94.87;57.13;;;;;;;;;;5019001;28;20037;-63
2021/12/28 02:05:54;;;;;;;98.07;61.10;;;;;;;;;;5018768;28;20105;-63
2021/12/28 02:08:20;;;;;;;86.37;57.50;;;;;;;;;;5017431;28;20026;-63
2021/12/28 02:10:48;;;;;;;91.90;57.70;;;;;;;;;;5018084;28;20024;-63
2021/12/28 02:13:15;;;;;;;100.87;61.57;;;;;;;;;;5017901;28;20033;-63
2021/12/28 02:15:41;;;;;;;91.20;57.57;;;;;;;;;;5018120;28;20383;-64
2021/12/28 02:18:08;;;;;;;94.93;57.93;;;;;;;;;;5025476;28;20022;-63
2021/12/28 02:20:35;;;;;;;94.53;59.17;;;;;;;;;;5010855;28;20414;-63
2021/12/28 02:23:01;;;;;;;89.37;58.17;;;;;;;;;;5013701;28;20029;-63
2021/12/28 02:25:27;;;;;;;95.70;58.93;;;;;;;;;;4997696;28;20153;-63
2021/12/28 02:27:53;;;;;;;95.10;58.60;;;;;;;;;;5013537;28;20100;-64
2021/12/28 02:30:21;;;;;;;102.80;60.47;;;;;;;;;;5018967;28;20026;-64
2021/12/28 02:32:48;;;;;;;98.87;57.93;;;;;;;;;;5013468;28;20080;-63
2021/12/28 02:35:15;;;;;;;94.97;56.30;;;;;;;;;;5015307;28;20032;-64
2021/12/28 02:37:42;;;;;;;89.60;55.77;;;;;;;;;;5014745;28;20029;-64
2021/12/28 02:40:09;;;;;;;102.10;59.20;;;;;;;;;;5014253;28;20486;-64
2021/12/28 02:42:35;;;;;;;105.20;63.83;;;;;;;;;;5013762;28;20022;-63
2021/12/28 02:45:13;;;;;;;103.13;64.20;;;;;;;;;;5015191;28;20034;-64
2021/12/28 02:47:43;;;;;;;99.87;62.73;;;;;;;;;;5004693;28;20071;-64
2021/12/28 02:50:11;;;;;;;108.40;65.27;;;;;;;;;;5013619;28;20144;-64
2021/12/28 02:52:38;;;;;;;95.27;60.80;;;;;;;;;;5014479;28;20022;-64
2021/12/28 02:55:08;;;;;;;91.43;58.23;;;;;;;;;;5014259;28;20033;-64
2021/12/28 02:57:35;;;;;;;92.67;59.93;;;;;;;;;;5014910;28;20373;-64
2021/12/28 03:00:01;;;;;;;92.37;60.63;;;;;;;;;;5014029;28;20040;-63
2021/12/28 03:02:27;;;;;;;92.23;61.67;;;;;;;;;;5014319;28;20224;-63
2021/12/28 03:04:53;;;;;;;90.93;59.70;;;;;;;;;;5013698;28;20087;-63
2021/12/28 03:07:19;;;;;;;85.53;57.10;;;;;;;;;;5015033;28;20026;-63
2021/12/28 03:09:45;;;;;;;95.60;60.90;;;;;;;;;;5014095;28;20022;-63
2021/12/28 03:15:15;;;;;;;91.87;62.00;;;;;;;;;;4999272;28;20519;-63
2021/12/28 03:17:41;;;;;;;89.63;60.87;;;;;;;;;;5006145;28;20038;-63
2021/12/28 03:20:08;;;;;;;90.03;60.67;;;;;;;;;;5013757;28;20026;-63
2021/12/28 03:22:37;;;;;;;94.97;61.60;;;;;;;;;;4995976;28;20032;-63
2021/12/28 03:25:05;;;;;;;95.30;61.50;;;;;;;;;;5012977;28;20037;-63
2021/12/28 03:27:31;;;;;;;92.97;58.53;;;;;;;;;;5014447;28;20054;-63
2021/12/28 03:29:57;;;;;;;92.60;57.03;;;;;;;;;;5011782;28;20061;-64
2021/12/28 03:32:23;;;;;;;93.20;59.13;;;;;;;;;;5002806;28;20077;-63
2021/12/28 03:34:49;;;;;;;89.53;58.27;;;;;;;;;;5012686;28;20038;-63
2021/12/28 03:37:15;;;;;;;93.73;58.40;;;;;;;;;;5018525;28;20485;-64
2021/12/28 03:39:41;;;;;;;91.47;58.40;;;;;;;;;;5013550;28;20372;-63
2021/12/28 03:42:08;;;;;;;92.27;58.13;;;;;;;;;;5009907;28;20503;-63
2021/12/28 03:44:34;;;;;;;89.63;57.40;;;;;;;;;;5013164;28;20053;-63
2021/12/28 03:47:00;;;;;;;84.40;56.07;;;;;;;;;;5016720;28;20124;-63
2021/12/28 03:49:26;;;;;;;88.43;56.70;;;;;;;;;;5013421;28;20034;-63
2021/12/28 03:51:53;;;;;;;90.03;58.27;;;;;;;;;;5017060;28;20022;-63
2021/12/28 03:54:19;;;;;;;89.87;58.13;;;;;;;;;;5011759;28;20029;-63
2021/12/28 03:56:45;;;;;;;91.03;58.43;;;;;;;;;;5019936;28;20041;-63
2021/12/28 04:02:14;;;;;;;84.20;54.00;;;;;;;;;;5003817;28;20068;-63
2021/12/28 04:04:40;;;;;;;80.10;54.33;;;;;;;;;;5018109;28;20070;-64
2021/12/28 04:07:09;;;;;;;86.63;54.30;;;;;;;;;;5013677;28;20424;-63
2021/12/28 04:12:20;;;;;;;91.23;55.43;;;;;;;;;;5006088;28;20041;-63
2021/12/28 04:14:46;;;;;;;86.37;54.10;;;;;;;;;;4995295;28;20360;-63
2021/12/28 04:17:12;;;;;;;95.60;55.00;;;;;;;;;;5014405;28;20057;-64
2021/12/28 04:19:38;;;;;;;87.00;52.63;;;;;;;;;;5012827;28;20041;-64
2021/12/28 04:22:05;;;;;;;79.40;52.47;;;;;;;;;;5011445;28;20026;-64
2021/12/28 04:24:31;;;;;;;83.67;53.30;;;;;;;;;;5005843;28;20034;-63
2021/12/28 04:26:57;;;;;;;86.87;55.13;;;;;;;;;;5002197;28;20030;-63
2021/12/28 04:29:23;;;;;;;91.73;56.80;;;;;;;;;;5010043;28;20030;-63
2021/12/28 04:31:49;;;;;;;82.47;53.07;;;;;;;;;;4995519;28;20594;-64
2021/12/28 04:34:15;;;;;;;87.53;55.57;;;;;;;;;;5011739;28;20070;-64
2021/12/28 04:36:41;;;;;;;91.90;55.57;;;;;;;;;;5008903;28;20030;-64
2021/12/28 04:39:07;;;;;;;85.70;53.77;;;;;;;;;;5008384;28;20104;-64
2021/12/28 04:41:34;;;;;;;85.83;53.90;;;;;;;;;;5006535;28;20036;-63
2021/12/28 04:44:01;;;;;;;85.20;51.77;;;;;;;;;;5012136;28;20095;-63
2021/12/28 04:46:28;;;;;;;79.30;50.67;;;;;;;;;;5012890;28;20068;-63
2021/12/28 04:48:54;;;;;;;84.67;51.63;;;;;;;;;;4994279;28;20113;-63
2021/12/28 04:51:20;;;;;;;87.13;51.37;;;;;;;;;;5010350;28;20032;-62
2021/12/28 04:53:48;;;;;;;82.50;50.93;;;;;;;;;;5011963;28;20037;-62
2021/12/28 04:56:14;;;;;;;85.03;52.03;;;;;;;;;;5018993;28;20025;-62
2021/12/28 04:58:40;;;;;;;86.40;50.67;;;;;;;;;;5023448;28;20025;-63
2021/12/28 05:01:06;;;;;;;91.07;49.77;;;;;;;;;;5013045;28;20492;-63
2021/12/28 05:03:32;;;;;;;90.40;51.83;;;;;;;;;;5012243;28;20048;-63
2021/12/28 05:05:58;;;;;;;92.80;53.43;;;;;;;;;;5011538;28;20507;-63
2021/12/28 05:08:24;;;;;;;91.57;51.20;;;;;;;;;;5011298;28;20029;-63
2021/12/28 05:10:52;;;;;;;93.70;52.40;;;;;;;;;;5011908;28;20083;-63
2021/12/28 05:13:18;;;;;;;92.77;53.37;;;;;;;;;;5012490;28;20084;-63
2021/12/28 05:15:45;;;;;;;87.87;50.33;;;;;;;;;;5006647;28;20091;-63
2021/12/28 05:18:12;;;;;;;94.10;53.37;;;;;;;;;;4995358;28;20030;-64
2021/12/28 05:20:38;;;;;;;99.70;52.93;;;;;;;;;;5010621;28;20033;-63
2021/12/28 05:23:04;;;;;;;93.37;53.13;;;;;;;;;;5012324;28;20496;-63
2021/12/28 05:25:32;;;;;;;94.70;51.87;;;;;;;;;;5017469;28;20080;-63
2021/12/28 05:27:58;;;;;;;92.83;53.57;;;;;;;;;;4992175;28;20031;-63
2021/12/28 05:30:24;;;;;;;93.10;52.67;;;;;;;;;;5011393;28;20391;-63
2021/12/28 05:32:50;;;;;;;95.90;51.37;;;;;;;;;;5011901;28;20490;-64
2021/12/28 05:35:16;;;;;;;84.80;48.73;;;;;;;;;;5007704;28;20025;-64
2021/12/28 05:37:42;;;;;;;77.37;45.07;;;;;;;;;;5010618;28;20030;-64
2021/12/28 05:40:09;;;;;;;84.93;46.57;;;;;;;;;;4994074;28;20510;-64
2021/12/28 05:42:35;;;;;;;76.80;46.50;;;;;;;;;;4996689;28;20030;-64
2021/12/28 05:45:01;;;;;;;83.73;47.23;;;;;;;;;;5016126;28;20036;-64
2021/12/28 05:47:27;;;;;;;77.30;45.70;;;;;;;;;;5011866;28;20042;-63
2021/12/28 05:49:53;;;;;;;83.13;47.33;;;;;;;;;;4994035;28;20062;-64
2021/12/28 05:52:19;;;;;;;77.10;46.80;;;;;;;;;;5010553;28;20026;-64
2021/12/28 05:54:45;;;;;;;86.67;49.27;;;;;;;;;;5012321;28;20034;-63
2021/12/28 05:57:11;;;;;;;87.87;48.93;;;;;;;;;;5015750;28;20034;-63
2021/12/28 06:02:41;;;;;;;83.07;48.43;;;;;;;;;;4998383;28;20032;-63
2021/12/28 06:05:07;;;;;;;84.47;50.07;;;;;;;;;;5023121;28;20120;-64
2021/12/28 06:07:33;;;;;;;87.73;50.50;;;;;;;;;;5015332;28;20434;-63
2021/12/28 06:09:59;;;;;;;90.73;50.43;;;;;;;;;;5015531;28;20483;-62
2021/12/28 06:12:25;;;;;;;89.67;49.77;;;;;;;;;;5013976;28;20029;-63
2021/12/28 06:14:52;;;;;;;87.53;50.57;;;;;;;;;;5013891;28;20490;-62
2021/12/28 06:17:18;;;;;;;90.43;50.00;;;;;;;;;;5015327;28;20030;-63
2021/12/28 06:19:44;;;;;;;86.20;49.87;;;;;;;;;;5015571;28;20479;-63
2021/12/28 06:22:10;;;;;;;86.43;48.43;;;;;;;;;;5014542;28;20451;-63
2021/12/28 06:24:36;;;;;;;85.80;50.90;;;;;;;;;;5014456;28;20042;-63
2021/12/28 06:27:02;;;;;;;89.17;49.80;;;;;;;;;;5010544;28;20553;-65
2021/12/28 06:29:29;;;;;;;82.20;47.40;;;;;;;;;;5012019;28;20034;-63
2021/12/28 06:31:55;;;;;;;79.97;46.37;;;;;;;;;;4998263;28;20080;-63
2021/12/28 06:34:21;;;;;;;79.40;46.80;;;;;;;;;;5011123;28;20033;-64
2021/12/28 06:36:48;;;;;;;87.80;49.53;;;;;;;;;;5013234;28;20029;-62
2021/12/28 06:39:14;;;;;;;89.13;49.90;;;;;;;;;;5009771;28;20065;-62
2021/12/28 06:41:40;;;;;;;84.33;48.87;;;;;;;;;;5011567;28;20053;-62
2021/12/28 06:44:25;;;;;;;88.30;48.93;;;;;;;;;;5014201;28;20500;-62
2021/12/28 06:46:51;;;;;;;82.47;48.65;;;;;;;;;;5010828;28;20145;-63
2021/12/28 06:49:17;;;;;;;86.20;50.50;;;;;;;;;;5016224;28;20049;-63
2021/12/28 06:51:43;;;;;;;83.07;50.43;;;;;;;;;;5014158;28;20069;-63
2021/12/28 06:54:09;;;;;;;80.30;47.17;;;;;;;;;;5007020;28;20380;-63
2021/12/28 06:56:36;;;;;;;80.73;50.70;;;;;;;;;;5017721;28;20495;-62
2021/12/28 06:59:02;;;;;;;80.67;49.47;;;;;;;;;;5014515;28;20022;-63
2021/12/28 07:01:28;;;;;;;87.60;51.33;;;;;;;;;;5007245;28;20026;-63
2021/12/28 07:03:54;;;;;;;79.90;49.90;;;;;;;;;;5014254;28;20491;-63
2021/12/28 07:06:23;;;;;;;84.53;53.23;;;;;;;;;;5012510;28;20025;-63
2021/12/28 07:08:49;;;;;;;82.17;52.37;;;;;;;;;;5013223;28;20495;-63
2021/12/28 07:11:16;;;;;;;79.50;52.90;;;;;;;;;;5020370;28;20055;-63
2021/12/28 07:13:42;;;;;;;85.63;55.53;;;;;;;;;;5014221;28;20029;-63
2021/12/28 07:16:08;;;;;;;81.40;50.80;;;;;;;;;;5014112;28;20073;-63
2021/12/28 07:18:34;;;;;;;85.97;52.20;;;;;;;;;;5030064;28;20026;-63
2021/12/28 07:21:02;;;;;;;83.00;53.73;;;;;;;;;;5014215;28;20026;-63
2021/12/28 07:23:28;;;;;;;82.73;52.00;;;;;;;;;;5014694;28;20030;-63
2021/12/28 07:25:54;;;;;;;86.37;53.23;;;;;;;;;;4996165;28;20038;-63
2021/12/28 07:28:21;;;;;;;85.17;54.70;;;;;;;;;;5023704;28;20026;-63
2021/12/28 07:30:48;;;;;;;82.00;52.70;;;;;;;;;;5010631;28;20034;-63
2021/12/28 07:33:14;;;;;;;95.27;57.93;;;;;;;;;;5014699;28;20428;-63
2021/12/28 07:35:40;;;;;;;93.83;56.03;;;;;;;;;;5012141;28;20036;-63
2021/12/28 07:38:06;;;;;;;88.07;56.00;;;;;;;;;;5014565;28;20092;-64
2021/12/28 07:40:32;;;;;;;89.97;55.07;;;;;;;;;;5013592;28;20108;-64
2021/12/28 07:42:58;;;;;;;91.93;56.93;;;;;;;;;;5014816;28;20420;-63
2021/12/28 07:45:24;;;;;;;91.27;57.30;;;;;;;;;;5012524;28;20037;-63
2021/12/28 07:47:51;;;;;;;92.83;58.03;;;;;;;;;;5026303;28;20091;-63
2021/12/28 07:50:17;;;;;;;88.23;57.80;;;;;;;;;;5009215;28;20028;-63
2021/12/28 07:52:45;;;;;;;83.93;57.00;;;;;;;;;;5012744;28;20042;-63
2021/12/28 07:55:11;;;;;;;96.07;59.30;;;;;;;;;;5014260;28;20448;-63
2021/12/28 07:57:37;;;;;;;94.03;59.13;;;;;;;;;;5022397;28;20057;-64
2021/12/28 08:00:06;;;;;;;95.87;58.43;;;;;;;;;;4995688;28;20014;-64
2021/12/28 08:02:32;;;;;;;94.40;59.80;;;;;;;;;;5013025;28;20076;-64
2021/12/28 08:04:58;;;;;;;93.07;60.20;;;;;;;;;;5012630;28;20029;-64
2021/12/28 08:07:24;;;;;;;93.23;58.83;;;;;;;;;;4992640;28;20026;-64
2021/12/28 08:09:49;;;;;;;91.90;59.17;;;;;;;;;;5004782;28;20105;-64
2021/12/28 08:12:16;;;;;;;87.40;58.27;;;;;;;;;;5012499;28;20022;-64
2021/12/28 08:14:42;;;;;;;89.03;59.17;;;;;;;;;;5012301;28;20054;-64
2021/12/28 08:17:08;;;;;;;93.37;59.53;;;;;;;;;;5010360;28;20025;-65
2021/12/28 08:19:35;;;;;;;97.17;59.47;;;;;;;;;;4990058;28;20025;-64
2021/12/28 08:22:01;;;;;;;97.43;60.97;;;;;;;;;;5013704;28;20032;-64
2021/12/28 08:24:29;;;;;;;92.73;60.50;;;;;;;;;;5013644;28;20103;-64
2021/12/28 08:26:55;;;;;;;88.33;57.03;;;;;;;;;;5013265;28;20083;-64
2021/12/28 08:29:21;;;;;;;85.33;56.43;;;;;;;;;;5013319;28;20383;-64
2021/12/28 08:31:47;;;;;;;87.07;56.80;;;;;;;;;;5017025;28;20029;-64
2021/12/28 08:34:13;;;;;;;94.10;59.60;;;;;;;;;;5021307;28;20044;-64
2021/12/28 08:36:39;;;;;;;91.00;58.13;;;;;;;;;;5024015;28;20034;-64
2021/12/28 08:39:05;;;;;;;92.90;60.63;;;;;;;;;;5013248;28;20037;-64
2021/12/28 08:41:31;;;;;;;94.80;60.20;;;;;;;;;;5012279;28;20116;-63
2021/12/28 08:43:57;;;;;;;98.33;64.30;;;;;;;;;;5010548;28;20030;-64
2021/12/28 08:46:23;;;;;;;95.67;59.90;;;;;;;;;;5011887;28;20064;-64
2021/12/28 08:48:51;;;;;;;91.03;59.37;;;;;;;;;;5015261;28;20475;-64
2021/12/28 08:51:17;;;;;;;95.23;59.77;;;;;;;;;;4999354;28;20471;-63
2021/12/28 08:53:43;;;;;;;93.57;60.83;;;;;;;;;;5001640;28;20426;-64
2021/12/28 08:56:09;;;;;;;95.97;60.15;;;;;;;;;;5011995;28;20038;-64
2021/12/28 08:58:35;;;;;;;93.00;59.03;;;;;;;;;;5013483;28;20046;-64
2021/12/28 09:01:01;;;;;;;91.43;58.50;;;;;;;;;;5008372;28;20116;-63
2021/12/28 09:03:28;;;;;;;95.60;61.58;;;;;;;;;;5013341;28;20030;-63
2021/12/28 09:05:54;;;;;;;102.35;62.42;;;;;;;;;;5012115;28;20099;-63
2021/12/28 09:08:20;;;;;;;99.30;61.67;;;;;;;;;;5013028;28;20113;-63
2021/12/28 09:10:46;;;;;;;109.23;63.00;;;;;;;;;;4989843;28;20042;-63
2021/12/28 09:13:14;;;;;;;98.23;62.20;;;;;;;;;;5017789;28;20738;-63
2021/12/28 09:15:40;;;;;;;108.57;64.17;;;;;;;;;;5011172;28;20033;-64
2021/12/28 09:18:06;;;;;;;99.30;61.70;;;;;;;;;;5011392;28;20022;-63
2021/12/28 09:20:32;;;;;;;99.47;61.70;;;;;;;;;;5012129;28;20034;-63
2021/12/28 09:22:58;;;;;;;97.40;60.60;;;;;;;;;;5008278;28;20029;-64
2021/12/28 09:25:24;;;;;;;97.73;59.47;;;;;;;;;;5007386;28;20571;-64
2021/12/28 09:27:51;;;;;;;96.23;58.50;;;;;;;;;;5008203;28;20047;-63
2021/12/28 09:30:18;;;;;;;102.30;61.87;;;;;;;;;;5014073;28;20030;-63
2021/12/28 09:32:45;;;;;;;93.65;59.85;;;;;;;;;;5011660;28;20050;-63
2021/12/28 09:35:12;;;;;;;95.87;60.27;;;;;;;;;;5013228;28;20079;-62
2021/12/28 09:37:38;;;;;;;93.90;57.93;;;;;;;;;;5013106;28;20026;-63
2021/12/28 09:40:06;;;;;;;100.00;60.60;;;;;;;;;;4993960;28;20030;-63
2021/12/28 09:42:32;;;;;;;100.13;58.60;;;;;;;;;;5010971;28;20026;-63
2021/12/28 09:44:58;;;;;;;92.73;56.33;;;;;;;;;;5024109;28;20046;-63
2021/12/28 09:47:24;;;;;;;100.30;58.17;;;;;;;;;;5015637;28;20112;-64
2021/12/28 09:49:50;;;;;;;99.40;58.63;;;;;;;;;;5016349;28;20018;-63
2021/12/28 09:52:17;;;;;;;91.07;58.00;;;;;;;;;;5013139;28;20109;-63
2021/12/28 09:54:43;;;;;;;99.55;61.00;;;;;;;;;;5018134;28;20044;-63
2021/12/28 09:57:09;;;;;;;101.30;60.17;;;;;;;;;;5015695;28;20072;-64
2021/12/28 09:59:36;;;;;;;96.60;57.30;;;;;;;;;;5016216;28;20034;-63
2021/12/28 10:02:08;;;;;;;104.23;62.80;;;;;;;;;;5007579;28;20026;-63
2021/12/28 10:04:35;;;;;;;101.45;58.65;;;;;;;;;;5014768;28;20448;-63
2021/12/28 10:07:18;;;;;;;96.13;59.78;;;;;;;;;;5015708;28;20050;-63
2021/12/28 10:09:44;;;;;;;95.17;57.43;;;;;;;;;;5015006;28;20075;-64
2021/12/28 10:12:10;;;;;;;96.20;57.90;;;;;;;;;;4995938;28;20050;-64
2021/12/28 10:14:36;;;;;;;91.95;58.92;;;;;;;;;;5008787;28;20034;-64
2021/12/28 10:17:05;;;;;;;89.97;55.07;;;;;;;;;;5015318;28;20381;-64
2021/12/28 10:19:39;;;;;;;94.63;58.23;;;;;;;;;;5014475;28;20036;-64
2021/12/28 10:22:23;;;;;;;88.20;55.85;;;;;;;;;;5003910;28;20034;-64
2021/12/28 10:24:50;;;;;;;95.60;56.35;;;;;;;;;;5015406;28;20038;-64
2021/12/28 10:27:19;;;;;;;92.63;56.53;;;;;;;;;;5001965;28;20076;-64
2021/12/28 10:29:45;;;;;;;106.43;57.77;;;;;;;;;;5015113;28;20034;-64
2021/12/28 10:32:23;;;;;;;97.43;56.10;;;;;;;;;;5015461;28;20044;-64
2021/12/28 10:34:54;;;;;;;95.73;57.70;;;;;;;;;;4997826;28;20030;-64
2021/12/28 10:37:28;;;;;;;100.10;60.15;;;;;;;;;;5013973;28;20049;-64
2021/12/28 10:39:56;;;;;;;98.57;57.60;;;;;;;;;;5014217;28;20108;-64
2021/12/28 10:42:40;;;;;;;97.85;58.75;;;;;;;;;;5004015;28;20029;-64
2021/12/28 10:45:08;;;;;;;92.28;56.65;;;;;;;;;;4997758;28;20095;-64
2021/12/28 10:47:34;;;;;;;103.43;59.17;;;;;;;;;;4997541;28;20058;-64
2021/12/28 10:50:07;;;;;;;100.80;57.67;;;;;;;;;;5014984;28;20060;-64
2021/12/28 10:52:38;;;;;;;96.22;56.25;;;;;;;;;;5014955;28;20029;-64
2021/12/28 11:01:12;;;;;;;103.43;60.93;;;;;;;;;;5009630;28;20045;-64
2021/12/28 11:03:40;;;;;;;99.68;59.10;;;;;;;;;;5014947;28;20029;-64
2021/12/28 11:06:21;;;;;;;96.93;58.25;;;;;;;;;;5011501;28;20026;-64
2021/12/28 11:08:48;;;;;;;98.93;59.03;;;;;;;;;;5020377;28;20030;-64
2021/12/28 11:11:16;;;;;;;94.97;58.28;;;;;;;;;;5014037;28;20084;-63
2021/12/28 11:13:42;;;;;;;94.35;56.85;;;;;;;;;;5014594;28;20022;-63
2021/12/28 11:16:10;;;;;;;96.25;58.90;;;;;;;;;;4994242;28;20026;-63
2021/12/28 11:18:44;;;;;;;97.07;58.47;;;;;;;;;;5022606;28;20112;-63
2021/12/28 11:21:12;;;;;;;96.78;58.28;;;;;;;;;;5011373;28;20026;-64
2021/12/28 11:23:38;;;;;;;93.78;57.55;;;;;;;;;;5014403;28;20030;-63
2021/12/28 11:26:09;;;;;;;98.55;58.15;;;;;;;;;;5013864;28;20496;-63
2021/12/28 11:28:37;;;;;;;104.50;59.22;;;;;;;;;;5018357;28;20030;-63
2021/12/28 11:31:09;;;;;;;93.38;56.83;;;;;;;;;;5013558;28;20040;-63
2021/12/28 11:33:49;;;;;;;88.40;54.37;;;;;;;;;;5014108;28;20034;-64
2021/12/28 11:36:16;;;;;;;89.63;56.35;;;;;;;;;;5013229;28;20035;-64
2021/12/28 11:38:43;;;;;;;90.88;55.03;;;;;;;;;;5022755;28;20030;-64
2021/12/28 11:41:09;;;;;;;89.05;53.42;;;;;;;;;;5016221;28;20080;-64
2021/12/28 11:43:36;;;;;;;82.95;54.45;;;;;;;;;;5014523;28;20026;-63
2021/12/28 11:46:02;;;;;;;89.70;52.33;;;;;;;;;;5013093;28;20050;-63
2021/12/28 11:48:29;;;;;;;93.55;54.75;;;;;;;;;;5018159;28;20080;-63
2021/12/28 11:50:55;;;;;;;86.80;52.35;;;;;;;;;;5018596;28;20514;-64
2021/12/28 11:53:21;;;;;;;86.78;54.42;;;;;;;;;;5014050;28;20026;-63
2021/12/28 11:55:47;;;;;;;82.80;50.15;;;;;;;;;;5013408;28;20029;-64
2021/12/28 11:58:13;;;;;;;81.43;49.33;;;;;;;;;;5012484;28;20061;-64
2021/12/28 12:00:40;;;;;;;91.10;54.38;;;;;;;;;;5018084;28;20068;-63
2021/12/28 12:03:06;;;;;;;85.60;50.38;;;;;;;;;;5034076;28;20033;-64
2021/12/28 12:05:33;;;;;;;84.22;48.45;;;;;;;;;;5016467;28;20070;-64
2021/12/28 12:08:02;;;;;;;82.70;50.45;;;;;;;;;;5010832;28;21933;-64
2021/12/28 12:10:30;;;;;;;87.50;52.80;;;;;;;;;;5001862;28;20092;-63
2021/12/28 12:12:58;;;;;;;80.47;49.10;;;;;;;;;;4998189;28;20089;-64
2021/12/28 12:15:34;;;;;;;82.88;50.80;;;;;;;;;;4998609;28;20041;-64
2021/12/28 12:18:01;;;;;;;80.60;48.03;;;;;;;;;;5010049;28;20483;-64
2021/12/28 12:20:34;;;;;;;81.90;50.05;;;;;;;;;;5019311;28;20400;-64
2021/12/28 12:23:07;;;;;;;88.68;52.72;;;;;;;;;;5008352;28;20018;-63
2021/12/28 12:25:55;;;;;;;85.25;50.42;;;;;;;;;;4995731;28;20041;-64
2021/12/28 12:28:33;;;;;;;82.68;49.90;;;;;;;;;;5002356;28;20483;-63
2021/12/28 12:31:00;;;;;;;88.10;52.50;;;;;;;;;;5010709;28;20032;-64
2021/12/28 12:33:34;;;;;;;83.15;49.25;;;;;;;;;;5010070;28;20026;-64
2021/12/28 12:36:00;;;;;;;87.28;49.88;;;;;;;;;;5011492;28;20138;-64
2021/12/28 12:38:27;;;;;;;88.28;48.88;;;;;;;;;;5012159;28;20507;-63
2021/12/28 12:40:59;;;;;;;94.35;52.00;;;;;;;;;;5011883;28;20026;-64
2021/12/28 12:43:27;;;;;;;95.22;53.63;;;;;;;;;;5013753;28;20487;-64
2021/12/28 12:45:54;;;;;;;96.35;53.05;;;;;;;;;;5012069;28;20506;-63
2021/12/28 12:48:30;;;;;;;88.60;50.83;;;;;;;;;;5013217;28;20483;-64
2021/12/28 12:51:16;;;;;;;92.85;52.83;;;;;;;;;;5013241;28;20033;-64
2021/12/28 12:53:46;;;;;;;99.80;55.92;;;;;;;;;;5013414;28;20030;-64
2021/12/28 12:56:13;;;;;;;89.68;53.00;;;;;;;;;;5012827;28;20037;-63
2021/12/28 12:58:45;;;;;;;97.53;54.58;;;;;;;;;;5011500;28;22111;-63
2021/12/28 13:01:27;;;;;;;98.88;53.17;;;;;;;;;;5020597;28;20033;-63
2021/12/28 13:03:55;;;;;;;103.72;55.55;;;;;;;;;;4995368;28;20475;-63
2021/12/28 13:06:50;;;;;;;94.80;54.25;;;;;;;;;;5011028;28;20030;-64
2021/12/28 13:09:16;;;;;;;101.70;54.83;;;;;;;;;;4988206;28;20039;-64
2021/12/28 13:11:44;;;;;;;107.80;60.25;;;;;;;;;;5001218;28;20038;-64
2021/12/28 13:14:12;;;;;;;99.45;58.90;;;;;;;;;;5015929;28;20025;-64
2021/12/28 13:16:38;;;;;;;101.80;57.55;;;;;;;;;;5012262;28;20026;-63
2021/12/28 13:19:14;;;;;;;95.53;56.17;;;;;;;;;;5013243;28;20041;-64
2021/12/28 13:21:54;;;;;;;106.73;59.63;;;;;;;;;;5010908;28;20153;-64
2021/12/28 13:24:20;;;;;;;103.45;60.13;;;;;;;;;;5013008;28;20041;-64
2021/12/28 13:26:47;;;;;;;102.60;60.22;;;;;;;;;;5016438;28;20026;-63
2021/12/28 13:29:52;;;;;;;109.17;60.57;;;;;;;;;;5020527;28;20033;-63
2021/12/28 13:32:23;;;;;;;108.03;57.85;;;;;;;;;;4935885;29;20031;-64
2021/12/28 13:34:59;;;;;;;109.18;61.13;;;;;;;;;;4935641;29;20174;-63
2021/12/28 13:37:32;;;;;;;118.97;62.13;;;;;;;;;;4994673;28;20033;-63
2021/12/28 13:39:59;;;;;;;112.27;60.23;;;;;;;;;;5003249;28;20468;-64
2021/12/28 13:42:26;;;;;;;107.30;59.47;;;;;;;;;;5010894;28;20329;-64
2021/12/28 13:44:52;;;;;;;103.47;55.35;;;;;;;;;;5016425;28;20083;-64
2021/12/28 13:47:19;;;;;;;105.97;58.17;;;;;;;;;;5013712;28;20058;-63
2021/12/28 13:50:21;;;;;;;101.80;55.03;;;;;;;;;;4994355;28;20038;-64
2021/12/28 13:52:51;;;;;;;100.87;55.67;;;;;;;;;;4912958;29;20035;-64
2021/12/28 13:55:23;;;;;;;103.93;56.73;;;;;;;;;;4993947;28;20073;-64
2021/12/28 13:57:49;;;;;;;100.13;53.30;;;;;;;;;;5012526;28;20022;-64
2021/12/28 14:00:16;;;;;;;99.27;53.80;;;;;;;;;;5010461;28;20034;-64
2021/12/28 14:02:52;;;;;;;99.13;53.23;;;;;;;;;;5008162;28;20084;-64
2021/12/28 14:05:18;;;;;;;93.53;50.47;;;;;;;;;;5011484;28;20120;-64
2021/12/28 14:07:44;;;;;;;89.35;52.40;;;;;;;;;;5014202;28;20084;-63
2021/12/28 14:10:10;;;;;;;89.07;51.47;;;;;;;;;;5012687;28;20097;-64
2021/12/28 14:12:36;;;;;;;91.73;52.70;;;;;;;;;;5010704;28;20032;-64
2021/12/28 14:15:03;;;;;;;84.53;51.80;;;;;;;;;;5012172;28;20113;-63
2021/12/28 14:17:29;;;;;;;93.30;51.67;;;;;;;;;;5009984;28;20387;-64
2021/12/28 14:19:59;;;;;;;87.73;50.40;;;;;;;;;;5017202;28;20033;-64
2021/12/28 14:22:26;;;;;;;87.83;49.90;;;;;;;;;;4997234;28;20121;-64
2021/12/28 14:24:53;;;;;;;86.40;47.17;;;;;;;;;;5018218;28;20045;-63
2021/12/28 14:27:37;;;;;;;80.23;46.37;;;;;;;;;;5014518;28;20026;-63
2021/12/28 14:30:09;;;;;;;83.00;47.87;;;;;;;;;;4998024;28;20451;-63
2021/12/28 14:32:37;;;;;;;85.93;48.60;;;;;;;;;;5020478;28;20030;-63
2021/12/28 14:35:05;;;;;;;80.50;45.80;;;;;;;;;;5015427;28;20392;-63